sensor_id;sensor_type;location;lat;lon;timestamp;P1;durP1;ratioP1;P2;durP2;ratioP2
48891;SDS011;50130;52.150;5.236;2023-02-15T00:00:05;58.3;;;43.3;;
48891;SDS011;50130;52.150;5.236;2023-02-15T00:03:22;63.8;;;45.5;;
48891;SDS011;50130;52.150;5.236;2023-02-15T00:04:58;66.1;;;48.0;;
48891;SDS011;50130;52.150;5.236;2023-02-15T00:06:34;63.4;;;45.0;;
48891;SDS011;50130;52.150;5.236;2023-02-15T00:08:11;65.7;;;46.8;;
48891;SDS011;50130;52.150;5.236;2023-02-15T00:11:39;62.3;;;44.6;;
48891;SDS011;50130;52.150;5.236;2023-02-15T00:13:17;64.8;;;45.4;;
48891;SDS011;50130;52.150;5.236;2023-02-15T00:14:53;64.6;;;45.3;;
48891;SDS011;50130;52.150;5.236;2023-02-15T00:18:08;63.2;;;42.2;;
48891;SDS011;50130;52.150;5.236;2023-02-15T00:19:44;66.1;;;46.3;;
48891;SDS011;50130;52.150;5.236;2023-02-15T00:21:20;67.7;;;45.9;;
48891;SDS011;50130;52.150;5.236;2023-02-15T00:22:56;69.91;;;47.5;;
48891;SDS011;50130;52.150;5.236;2023-02-15T00:26:10;65.41;;;46.7;;
48891;SDS011;50130;52.150;5.236;2023-02-15T00:27:48;63.5;;;45.4;;
48891;SDS011;50130;52.150;5.236;2023-02-15T00:29:25;67.8;;;44.3;;
48891;SDS011;50130;52.150;5.236;2023-02-15T00:32:40;59.5;;;44.0;;
48891;SDS011;50130;52.150;5.236;2023-02-15T00:34:17;66.7;;;45.4;;
48891;SDS011;50130;52.150;5.236;2023-02-15T00:35:56;67.5;;;47.1;;
48891;SDS011;50130;52.150;5.236;2023-02-15T00:37:33;61.1;;;45.5;;
48891;SDS011;50130;52.150;5.236;2023-02-15T00:40:51;62.7;;;45.4;;
48891;SDS011;50130;52.150;5.236;2023-02-15T00:42:28;64.2;;;46.1;;
48891;SDS011;50130;52.150;5.236;2023-02-15T00:44:04;65.91;;;44.6;;
48891;SDS011;50130;52.150;5.236;2023-02-15T00:47:21;61.4;;;44.6;;
48891;SDS011;50130;52.150;5.236;2023-02-15T00:48:57;66.91;;;45.0;;
48891;SDS011;50130;52.150;5.236;2023-02-15T00:50:33;66.0;;;47.3;;
48891;SDS011;50130;52.150;5.236;2023-02-15T00:52:09;69.7;;;47.7;;
48891;SDS011;50130;52.150;5.236;2023-02-15T00:55:22;67.7;;;47.2;;
48891;SDS011;50130;52.150;5.236;2023-02-15T00:58:35;69.91;;;46.6;;
48891;SDS011;50130;52.150;5.236;2023-02-15T01:01:49;71.0;;;48.9;;
48891;SDS011;50130;52.150;5.236;2023-02-15T01:03:25;74.5;;;49.0;;
48891;SDS011;50130;52.150;5.236;2023-02-15T01:05:01;72.41;;;49.6;;
48891;SDS011;50130;52.150;5.236;2023-02-15T01:08:14;67.7;;;47.4;;
48891;SDS011;50130;52.150;5.236;2023-02-15T01:09:50;65.5;;;48.1;;
48891;SDS011;50130;52.150;5.236;2023-02-15T01:11:27;65.8;;;47.8;;
48891;SDS011;50130;52.150;5.236;2023-02-15T01:13:03;65.2;;;47.2;;
48891;SDS011;50130;52.150;5.236;2023-02-15T01:16:16;65.2;;;47.2;;
48891;SDS011;50130;52.150;5.236;2023-02-15T01:17:53;64.2;;;44.9;;
48891;SDS011;50130;52.150;5.236;2023-02-15T01:19:29;62.4;;;44.3;;
48891;SDS011;50130;52.150;5.236;2023-02-15T01:22:49;66.0;;;45.7;;
48891;SDS011;50130;52.150;5.236;2023-02-15T01:24:26;59.4;;;43.8;;
48891;SDS011;50130;52.150;5.236;2023-02-15T01:26:02;62.0;;;45.7;;
48891;SDS011;50130;52.150;5.236;2023-02-15T01:27:39;63.8;;;46.2;;
48891;SDS011;50130;52.150;5.236;2023-02-15T01:30:51;65.41;;;45.8;;
48891;SDS011;50130;52.150;5.236;2023-02-15T01:32:28;68.91;;;49.3;;
48891;SDS011;50130;52.150;5.236;2023-02-15T01:34:04;73.5;;;49.7;;
48891;SDS011;50130;52.150;5.236;2023-02-15T01:37:16;67.91;;;48.4;;
48891;SDS011;50130;52.150;5.236;2023-02-15T01:38:52;64.41;;;47.4;;
48891;SDS011;50130;52.150;5.236;2023-02-15T01:40:28;64.6;;;45.7;;
48891;SDS011;50130;52.150;5.236;2023-02-15T01:43:47;71.7;;;49.5;;
48891;SDS011;50130;52.150;5.236;2023-02-15T01:45:25;72.5;;;49.3;;
48891;SDS011;50130;52.150;5.236;2023-02-15T01:47:04;72.0;;;51.0;;
48891;SDS011;50130;52.150;5.236;2023-02-15T01:48:40;71.7;;;50.4;;
48891;SDS011;50130;52.150;5.236;2023-02-15T01:52:05;71.11;;;51.8;;
48891;SDS011;50130;52.150;5.236;2023-02-15T01:53:43;72.11;;;51.3;;
48891;SDS011;50130;52.150;5.236;2023-02-15T01:55:27;76.3;;;51.6;;
48891;SDS011;50130;52.150;5.236;2023-02-15T01:57:09;70.5;;;50.9;;
48891;SDS011;50130;52.150;5.236;2023-02-15T02:00:31;70.61;;;50.5;;
48891;SDS011;50130;52.150;5.236;2023-02-15T02:02:09;76.0;;;51.1;;
48891;SDS011;50130;52.150;5.236;2023-02-15T02:03:51;77.2;;;51.5;;
48891;SDS011;50130;52.150;5.236;2023-02-15T02:05:34;75.41;;;52.7;;
48891;SDS011;50130;52.150;5.236;2023-02-15T02:08:50;74.7;;;52.1;;
48891;SDS011;50130;52.150;5.236;2023-02-15T02:10:28;72.7;;;51.1;;
48891;SDS011;50130;52.150;5.236;2023-02-15T02:12:04;71.8;;;50.2;;
48891;SDS011;50130;52.150;5.236;2023-02-15T02:13:41;78.8;;;54.1;;
48891;SDS011;50130;52.150;5.236;2023-02-15T02:17:06;72.0;;;50.7;;
48891;SDS011;50130;52.150;5.236;2023-02-15T02:18:55;72.91;;;51.8;;
48891;SDS011;50130;52.150;5.236;2023-02-15T02:20:55;76.3;;;51.9;;
48891;SDS011;50130;52.150;5.236;2023-02-15T02:23:31;74.7;;;53.1;;
48891;SDS011;50130;52.150;5.236;2023-02-15T02:32:52;74.8;;;52.7;;
48891;SDS011;50130;52.150;5.236;2023-02-15T02:35:41;69.41;;;51.7;;
48891;SDS011;50130;52.150;5.236;2023-02-15T02:37:27;67.7;;;49.5;;
48891;SDS011;50130;52.150;5.236;2023-02-15T02:39:13;66.8;;;49.1;;
48891;SDS011;50130;52.150;5.236;2023-02-15T02:41:04;69.91;;;50.0;;
48891;SDS011;50130;52.150;5.236;2023-02-15T02:44:39;74.3;;;52.2;;
48891;SDS011;50130;52.150;5.236;2023-02-15T02:46:20;70.91;;;50.6;;
48891;SDS011;50130;52.150;5.236;2023-02-15T02:48:02;69.7;;;50.7;;
48891;SDS011;50130;52.150;5.236;2023-02-15T02:49:43;73.0;;;51.1;;
48891;SDS011;50130;52.150;5.236;2023-02-15T02:51:21;76.8;;;52.6;;
48891;SDS011;50130;52.150;5.236;2023-02-15T02:54:35;73.8;;;52.4;;
48891;SDS011;50130;52.150;5.236;2023-02-15T02:56:13;71.3;;;51.4;;
48891;SDS011;50130;52.150;5.236;2023-02-15T02:57:57;69.91;;;49.4;;
48891;SDS011;50130;52.150;5.236;2023-02-15T02:59:41;73.8;;;51.3;;
48891;SDS011;50130;52.150;5.236;2023-02-15T03:03:08;71.7;;;50.6;;
48891;SDS011;50130;52.150;5.236;2023-02-15T03:04:59;71.41;;;53.0;;
48891;SDS011;50130;52.150;5.236;2023-02-15T03:06:44;70.0;;;50.6;;
48891;SDS011;50130;52.150;5.236;2023-02-15T03:08:30;70.0;;;49.9;;
48891;SDS011;50130;52.150;5.236;2023-02-15T03:10:12;73.3;;;51.8;;
48891;SDS011;50130;52.150;5.236;2023-02-15T03:13:26;70.41;;;50.3;;
48891;SDS011;50130;52.150;5.236;2023-02-15T03:15:04;76.3;;;52.4;;
48891;SDS011;50130;52.150;5.236;2023-02-15T03:16:46;75.0;;;52.2;;
48891;SDS011;50130;52.150;5.236;2023-02-15T03:20:14;74.7;;;51.4;;
48891;SDS011;50130;52.150;5.236;2023-02-15T03:21:58;76.7;;;53.4;;
48891;SDS011;50130;52.150;5.236;2023-02-15T03:23:45;72.41;;;51.1;;
48891;SDS011;50130;52.150;5.236;2023-02-15T03:25:23;72.91;;;52.9;;
48891;SDS011;50130;52.150;5.236;2023-02-15T03:27:04;74.2;;;50.9;;
48891;SDS011;50130;52.150;5.236;2023-02-15T03:30:25;72.61;;;51.6;;
48891;SDS011;50130;52.150;5.236;2023-02-15T03:32:05;68.41;;;47.9;;
48891;SDS011;50130;52.150;5.236;2023-02-15T03:33:48;72.7;;;51.1;;
48891;SDS011;50130;52.150;5.236;2023-02-15T03:35:31;72.61;;;50.4;;
48891;SDS011;50130;52.150;5.236;2023-02-15T03:37:22;74.8;;;51.5;;
48891;SDS011;50130;52.150;5.236;2023-02-15T03:41:21;72.91;;;52.6;;
48891;SDS011;50130;52.150;5.236;2023-02-15T03:43:04;73.61;;;50.9;;
48891;SDS011;50130;52.150;5.236;2023-02-15T03:44:50;77.5;;;53.1;;
48891;SDS011;50130;52.150;5.236;2023-02-15T03:46:35;74.11;;;52.3;;
48891;SDS011;50130;52.150;5.236;2023-02-15T03:48:18;77.5;;;53.0;;
48891;SDS011;50130;52.150;5.236;2023-02-15T03:49:59;73.91;;;51.4;;
48891;SDS011;50130;52.150;5.236;2023-02-15T03:53:22;73.61;;;51.9;;
48891;SDS011;50130;52.150;5.236;2023-02-15T03:55:01;69.61;;;50.4;;
48891;SDS011;50130;52.150;5.236;2023-02-15T03:56:39;76.8;;;52.0;;
48891;SDS011;50130;52.150;5.236;2023-02-15T04:02:26;80.8;;;53.0;;
48891;SDS011;50130;52.150;5.236;2023-02-15T04:05:55;78.0;;;52.0;;
48891;SDS011;50130;52.150;5.236;2023-02-15T04:07:31;72.0;;;51.6;;
48891;SDS011;50130;52.150;5.236;2023-02-15T04:10:56;74.61;;;52.0;;
48891;SDS011;50130;52.150;5.236;2023-02-15T04:12:42;73.8;;;51.7;;
48891;SDS011;50130;52.150;5.236;2023-02-15T04:16:06;73.7;;;51.7;;
48891;SDS011;50130;52.150;5.236;2023-02-15T04:17:43;72.0;;;51.6;;
48891;SDS011;50130;52.150;5.236;2023-02-15T04:25:18;72.8;;;50.7;;
48891;SDS011;50130;52.150;5.236;2023-02-15T04:26:56;75.0;;;52.0;;
48891;SDS011;50130;52.150;5.236;2023-02-15T04:28:33;74.8;;;51.4;;
48891;SDS011;50130;52.150;5.236;2023-02-15T04:30:09;76.2;;;52.6;;
48891;SDS011;50130;52.150;5.236;2023-02-15T04:31:48;78.91;;;54.1;;
48891;SDS011;50130;52.150;5.236;2023-02-15T04:35:02;76.5;;;52.8;;
48891;SDS011;50130;52.150;5.236;2023-02-15T04:36:39;79.3;;;53.6;;
48891;SDS011;50130;52.150;5.236;2023-02-15T04:38:16;83.7;;;56.0;;
48891;SDS011;50130;52.150;5.236;2023-02-15T04:41:29;76.61;;;53.4;;
48891;SDS011;50130;52.150;5.236;2023-02-15T04:43:05;79.61;;;55.4;;
48891;SDS011;50130;52.150;5.236;2023-02-15T04:44:41;77.2;;;54.4;;
48891;SDS011;50130;52.150;5.236;2023-02-15T04:47:55;78.8;;;53.7;;
48891;SDS011;50130;52.150;5.236;2023-02-15T04:49:31;78.5;;;53.3;;
48891;SDS011;50130;52.150;5.236;2023-02-15T04:51:07;75.0;;;52.2;;
48891;SDS011;50130;52.150;5.236;2023-02-15T04:52:43;73.5;;;50.3;;
48891;SDS011;50130;52.150;5.236;2023-02-15T04:55:56;72.0;;;51.0;;
48891;SDS011;50130;52.150;5.236;2023-02-15T04:57:32;72.0;;;50.4;;
48891;SDS011;50130;52.150;5.236;2023-02-15T04:59:09;70.8;;;48.7;;
48891;SDS011;50130;52.150;5.236;2023-02-15T05:02:22;71.41;;;48.9;;
48891;SDS011;50130;52.150;5.236;2023-02-15T05:03:58;73.11;;;51.3;;
48891;SDS011;50130;52.150;5.236;2023-02-15T05:05:34;74.61;;;49.3;;
48891;SDS011;50130;52.150;5.236;2023-02-15T05:08:46;70.41;;;49.2;;
48891;SDS011;50130;52.150;5.236;2023-02-15T05:10:22;72.61;;;48.7;;
48891;SDS011;50130;52.150;5.236;2023-02-15T05:11:58;65.2;;;44.7;;
48891;SDS011;50130;52.150;5.236;2023-02-15T05:16:47;71.61;;;46.6;;
48891;SDS011;50130;52.150;5.236;2023-02-15T05:18:23;69.11;;;46.8;;
48891;SDS011;50130;52.150;5.236;2023-02-15T05:19:59;73.91;;;49.2;;
48891;SDS011;50130;52.150;5.236;2023-02-15T05:23:11;65.6;;;45.6;;
48891;SDS011;50130;52.150;5.236;2023-02-15T05:28:58;77.8;;;51.1;;
48891;SDS011;50130;52.150;5.236;2023-02-15T05:30:34;77.0;;;50.7;;
48891;SDS011;50130;52.150;5.236;2023-02-15T05:33:49;71.7;;;47.6;;
48891;SDS011;50130;52.150;5.236;2023-02-15T05:35:25;72.5;;;48.7;;
48891;SDS011;50130;52.150;5.236;2023-02-15T05:37:02;67.6;;;47.6;;
48891;SDS011;50130;52.150;5.236;2023-02-15T05:40:15;67.6;;;47.6;;
48891;SDS011;50130;52.150;5.236;2023-02-15T05:41:51;74.2;;;49.7;;
48891;SDS011;50130;52.150;5.236;2023-02-15T05:43:27;73.11;;;48.7;;
48891;SDS011;50130;52.150;5.236;2023-02-15T05:45:06;73.5;;;47.6;;
48891;SDS011;50130;52.150;5.236;2023-02-15T05:48:19;67.0;;;47.0;;
48891;SDS011;50130;52.150;5.236;2023-02-15T05:49:58;63.6;;;45.0;;
48891;SDS011;50130;52.150;5.236;2023-02-15T05:51:34;69.3;;;46.4;;
48891;SDS011;50130;52.150;5.236;2023-02-15T05:54:46;62.1;;;44.5;;
48891;SDS011;50130;52.150;5.236;2023-02-15T05:56:22;61.9;;;43.8;;
48891;SDS011;50130;52.150;5.236;2023-02-15T05:57:59;63.9;;;44.8;;
48891;SDS011;50130;52.150;5.236;2023-02-15T05:59:35;65.7;;;46.3;;
48891;SDS011;50130;52.150;5.236;2023-02-15T06:02:50;66.6;;;44.4;;
48891;SDS011;50130;52.150;5.236;2023-02-15T06:04:26;71.5;;;46.9;;
48891;SDS011;50130;52.150;5.236;2023-02-15T06:06:04;67.8;;;46.1;;
48891;SDS011;50130;52.150;5.236;2023-02-15T06:09:19;63.8;;;45.9;;
48891;SDS011;50130;52.150;5.236;2023-02-15T06:10:56;64.0;;;46.0;;
48891;SDS011;50130;52.150;5.236;2023-02-15T06:12:32;60.9;;;44.6;;
48891;SDS011;50130;52.150;5.236;2023-02-15T06:15:44;64.1;;;43.8;;
48891;SDS011;50130;52.150;5.236;2023-02-15T06:17:21;62.4;;;43.6;;
48891;SDS011;50130;52.150;5.236;2023-02-15T06:18:59;62.4;;;43.6;;
48891;SDS011;50130;52.150;5.236;2023-02-15T06:20:35;74.0;;;47.1;;
48891;SDS011;50130;52.150;5.236;2023-02-15T06:23:50;73.41;;;49.2;;
48891;SDS011;50130;52.150;5.236;2023-02-15T06:25:26;76.41;;;48.7;;
48891;SDS011;50130;52.150;5.236;2023-02-15T06:27:02;73.91;;;47.2;;
48891;SDS011;50130;52.150;5.236;2023-02-15T06:30:14;71.5;;;47.4;;
48891;SDS011;50130;52.150;5.236;2023-02-15T06:31:50;71.2;;;47.2;;
48891;SDS011;50130;52.150;5.236;2023-02-15T06:33:27;68.3;;;47.8;;
48891;SDS011;50130;52.150;5.236;2023-02-15T06:36:40;68.7;;;46.2;;
48891;SDS011;50130;52.150;5.236;2023-02-15T06:38:17;70.2;;;47.7;;
48891;SDS011;50130;52.150;5.236;2023-02-15T06:39:53;74.91;;;49.4;;
48891;SDS011;50130;52.150;5.236;2023-02-15T06:41:29;73.2;;;48.5;;
48891;SDS011;50130;52.150;5.236;2023-02-15T06:44:41;70.3;;;47.1;;
48891;SDS011;50130;52.150;5.236;2023-02-15T06:46:18;69.0;;;47.3;;
48891;SDS011;50130;52.150;5.236;2023-02-15T06:47:54;69.5;;;47.0;;
48891;SDS011;50130;52.150;5.236;2023-02-15T06:51:06;71.41;;;48.5;;
48891;SDS011;50130;52.150;5.236;2023-02-15T06:52:42;66.3;;;44.6;;
48891;SDS011;50130;52.150;5.236;2023-02-15T06:54:18;69.2;;;46.0;;
48891;SDS011;50130;52.150;5.236;2023-02-15T06:57:37;76.91;;;49.7;;
48891;SDS011;50130;52.150;5.236;2023-02-15T06:59:13;70.2;;;46.3;;
48891;SDS011;50130;52.150;5.236;2023-02-15T07:00:51;66.0;;;45.1;;
48891;SDS011;50130;52.150;5.236;2023-02-15T07:02:27;71.91;;;48.0;;
48891;SDS011;50130;52.150;5.236;2023-02-15T07:05:39;63.5;;;45.0;;
48891;SDS011;50130;52.150;5.236;2023-02-15T07:07:15;68.8;;;45.2;;
48891;SDS011;50130;52.150;5.236;2023-02-15T07:08:52;66.0;;;44.8;;
48891;SDS011;50130;52.150;5.236;2023-02-15T07:13:09;68.5;;;46.7;;
48891;SDS011;50130;52.150;5.236;2023-02-15T07:16:21;62.6;;;43.1;;
48891;SDS011;50130;52.150;5.236;2023-02-15T07:17:58;70.3;;;46.5;;
48891;SDS011;50130;52.150;5.236;2023-02-15T07:19:33;60.3;;;43.3;;
48891;SDS011;50130;52.150;5.236;2023-02-15T07:21:10;72.41;;;46.8;;
48891;SDS011;50130;52.150;5.236;2023-02-15T07:24:23;68.1;;;46.4;;
48891;SDS011;50130;52.150;5.236;2023-02-15T07:25:59;71.8;;;47.3;;
48891;SDS011;50130;52.150;5.236;2023-02-15T07:27:36;67.91;;;46.8;;
48891;SDS011;50130;52.150;5.236;2023-02-15T07:32:27;77.0;;;48.6;;
48891;SDS011;50130;52.150;5.236;2023-02-15T07:34:05;70.41;;;47.9;;
48891;SDS011;50130;52.150;5.236;2023-02-15T07:37:23;68.61;;;46.4;;
48891;SDS011;50130;52.150;5.236;2023-02-15T07:39:00;63.4;;;43.7;;
48891;SDS011;50130;52.150;5.236;2023-02-15T07:40:36;67.2;;;46.1;;
48891;SDS011;50130;52.150;5.236;2023-02-15T07:42:13;60.9;;;42.3;;
48891;SDS011;50130;52.150;5.236;2023-02-15T07:45:25;67.41;;;46.4;;
48891;SDS011;50130;52.150;5.236;2023-02-15T07:47:01;74.11;;;48.9;;
48891;SDS011;50130;52.150;5.236;2023-02-15T07:48:38;72.91;;;49.0;;
48891;SDS011;50130;52.150;5.236;2023-02-15T07:51:52;70.0;;;50.0;;
48891;SDS011;50130;52.150;5.236;2023-02-15T07:53:29;67.3;;;47.7;;
48891;SDS011;50130;52.150;5.236;2023-02-15T07:55:06;72.2;;;48.5;;
48891;SDS011;50130;52.150;5.236;2023-02-15T07:58:19;80.7;;;53.0;;
48891;SDS011;50130;52.150;5.236;2023-02-15T07:59:56;67.0;;;47.9;;
48891;SDS011;50130;52.150;5.236;2023-02-15T08:01:33;79.91;;;51.9;;
48891;SDS011;50130;52.150;5.236;2023-02-15T08:03:13;79.0;;;51.3;;
48891;SDS011;50130;52.150;5.236;2023-02-15T08:06:27;75.91;;;51.3;;
48891;SDS011;50130;52.150;5.236;2023-02-15T08:08:06;76.2;;;52.4;;
48891;SDS011;50130;52.150;5.236;2023-02-15T08:09:43;72.61;;;49.4;;
48891;SDS011;50130;52.150;5.236;2023-02-15T08:13:07;72.7;;;48.9;;
48891;SDS011;50130;52.150;5.236;2023-02-15T08:14:43;77.0;;;51.8;;
48891;SDS011;50130;52.150;5.236;2023-02-15T08:16:21;79.0;;;52.3;;
48891;SDS011;50130;52.150;5.236;2023-02-15T08:18:00;81.3;;;54.0;;
48891;SDS011;50130;52.150;5.236;2023-02-15T08:21:13;80.5;;;54.2;;
48891;SDS011;50130;52.150;5.236;2023-02-15T08:22:49;79.61;;;55.1;;
48891;SDS011;50130;52.150;5.236;2023-02-15T08:24:27;82.9;;;55.0;;
48891;SDS011;50130;52.150;5.236;2023-02-15T08:26:04;80.2;;;56.3;;
48891;SDS011;50130;52.150;5.236;2023-02-15T08:29:17;84.3;;;56.0;;
48891;SDS011;50130;52.150;5.236;2023-02-15T08:31:03;72.8;;;52.4;;
48891;SDS011;50130;52.150;5.236;2023-02-15T08:32:40;86.6;;;57.7;;
48891;SDS011;50130;52.150;5.236;2023-02-15T08:35:55;72.7;;;50.6;;
48891;SDS011;50130;52.150;5.236;2023-02-15T08:37:31;69.5;;;50.5;;
48891;SDS011;50130;52.150;5.236;2023-02-15T08:39:07;76.8;;;53.6;;
48891;SDS011;50130;52.150;5.236;2023-02-15T08:40:44;84.6;;;58.8;;
48891;SDS011;50130;52.150;5.236;2023-02-15T08:43:58;88.3;;;61.4;;
48891;SDS011;50130;52.150;5.236;2023-02-15T08:45:36;80.8;;;58.7;;
48891;SDS011;50130;52.150;5.236;2023-02-15T08:47:12;81.0;;;57.5;;
48891;SDS011;50130;52.150;5.236;2023-02-15T08:50:25;78.91;;;57.8;;
48891;SDS011;50130;52.150;5.236;2023-02-15T08:52:02;80.61;;;57.3;;
48891;SDS011;50130;52.150;5.236;2023-02-15T08:53:38;81.5;;;56.8;;
48891;SDS011;50130;52.150;5.236;2023-02-15T08:56:52;78.2;;;58.3;;
48891;SDS011;50130;52.150;5.236;2023-02-15T08:58:29;84.0;;;57.7;;
48891;SDS011;50130;52.150;5.236;2023-02-15T09:00:06;83.0;;;58.5;;
48891;SDS011;50130;52.150;5.236;2023-02-15T09:01:42;87.5;;;59.4;;
48891;SDS011;50130;52.150;5.236;2023-02-15T09:04:56;76.41;;;53.7;;
48891;SDS011;50130;52.150;5.236;2023-02-15T09:06:32;64.5;;;49.0;;
48891;SDS011;50130;52.150;5.236;2023-02-15T09:08:08;69.91;;;52.9;;
48891;SDS011;50130;52.150;5.236;2023-02-15T09:11:23;73.0;;;51.7;;
48891;SDS011;50130;52.150;5.236;2023-02-15T09:13:01;70.61;;;50.7;;
48891;SDS011;50130;52.150;5.236;2023-02-15T09:14:38;63.4;;;49.6;;
48891;SDS011;50130;52.150;5.236;2023-02-15T09:16:16;70.0;;;50.5;;
48891;SDS011;50130;52.150;5.236;2023-02-15T09:19:29;68.3;;;49.6;;
48891;SDS011;50130;52.150;5.236;2023-02-15T09:21:06;69.91;;;50.7;;
48891;SDS011;50130;52.150;5.236;2023-02-15T09:22:45;65.1;;;48.9;;
48891;SDS011;50130;52.150;5.236;2023-02-15T09:26:01;72.41;;;51.0;;
48891;SDS011;50130;52.150;5.236;2023-02-15T09:27:39;61.9;;;48.0;;
48891;SDS011;50130;52.150;5.236;2023-02-15T09:29:15;67.8;;;51.1;;
48891;SDS011;50130;52.150;5.236;2023-02-15T09:30:53;63.0;;;47.1;;
48891;SDS011;50130;52.150;5.236;2023-02-15T09:34:05;59.9;;;44.6;;
48891;SDS011;50130;52.150;5.236;2023-02-15T09:35:41;60.5;;;45.4;;
48891;SDS011;50130;52.150;5.236;2023-02-15T09:37:18;63.8;;;48.1;;
48891;SDS011;50130;52.150;5.236;2023-02-15T09:40:33;60.5;;;45.5;;
48891;SDS011;50130;52.150;5.236;2023-02-15T09:42:58;61.1;;;47.3;;
48891;SDS011;50130;52.150;5.236;2023-02-15T09:44:57;68.1;;;49.6;;
48891;SDS011;50130;52.150;5.236;2023-02-15T09:47:19;63.6;;;47.6;;
48891;SDS011;50130;52.150;5.236;2023-02-15T09:49:15;63.2;;;45.2;;
48891;SDS011;50130;52.150;5.236;2023-02-15T09:51:07;57.7;;;43.4;;
48891;SDS011;50130;52.150;5.236;2023-02-15T09:53:05;58.8;;;43.4;;
48891;SDS011;50130;52.150;5.236;2023-02-15T09:55:00;61.0;;;45.6;;
48891;SDS011;50130;52.150;5.236;2023-02-15T09:56:51;59.1;;;44.2;;
48891;SDS011;50130;52.150;5.236;2023-02-15T09:58:35;59.0;;;44.5;;
48891;SDS011;50130;52.150;5.236;2023-02-15T10:00:24;60.0;;;43.5;;
48891;SDS011;50130;52.150;5.236;2023-02-15T10:04:11;57.2;;;42.6;;
48891;SDS011;50130;52.150;5.236;2023-02-15T10:06:09;59.6;;;43.1;;
48891;SDS011;50130;52.150;5.236;2023-02-15T10:08:36;54.9;;;42.5;;
48891;SDS011;50130;52.150;5.236;2023-02-15T10:10:28;55.5;;;43.0;;
48891;SDS011;50130;52.150;5.236;2023-02-15T10:12:22;55.5;;;42.3;;
48891;SDS011;50130;52.150;5.236;2023-02-15T10:14:17;59.6;;;43.1;;
48891;SDS011;50130;52.150;5.236;2023-02-15T10:16:12;54.4;;;41.5;;
48891;SDS011;50130;52.150;5.236;2023-02-15T10:18:12;58.5;;;41.7;;
48891;SDS011;50130;52.150;5.236;2023-02-15T10:20:52;53.3;;;40.5;;
48891;SDS011;50130;52.150;5.236;2023-02-15T10:22:38;51.1;;;39.31;;
48891;SDS011;50130;52.150;5.236;2023-02-15T10:24:30;52.7;;;39.9;;
48891;SDS011;50130;52.150;5.236;2023-02-15T10:26:37;52.3;;;39.31;;
48891;SDS011;50130;52.150;5.236;2023-02-15T10:28:21;51.3;;;40.1;;
48891;SDS011;50130;52.150;5.236;2023-02-15T10:30:06;55.6;;;40.5;;
48891;SDS011;50130;52.150;5.236;2023-02-15T10:31:48;51.3;;;38.6;;
48891;SDS011;50130;52.150;5.236;2023-02-15T10:35:15;51.6;;;38.6;;
48891;SDS011;50130;52.150;5.236;2023-02-15T10:37:05;52.8;;;39.4;;
48891;SDS011;50130;52.150;5.236;2023-02-15T10:39:56;54.3;;;38.31;;
48891;SDS011;50130;52.150;5.236;2023-02-15T10:41:44;52.4;;;39.9;;
48891;SDS011;50130;52.150;5.236;2023-02-15T10:43:34;53.1;;;39.0;;
48891;SDS011;50130;52.150;5.236;2023-02-15T10:45:27;51.6;;;38.71;;
48891;SDS011;50130;52.150;5.236;2023-02-15T10:47:16;50.3;;;37.71;;
48891;SDS011;50130;52.150;5.236;2023-02-15T10:49:23;47.5;;;36.9;;
48891;SDS011;50130;52.150;5.236;2023-02-15T10:51:44;50.8;;;37.71;;
48891;SDS011;50130;52.150;5.236;2023-02-15T10:54:09;47.0;;;35.71;;
48891;SDS011;50130;52.150;5.236;2023-02-15T10:56:00;47.9;;;37.4;;
48891;SDS011;50130;52.150;5.236;2023-02-15T10:57:51;47.2;;;37.9;;
48891;SDS011;50130;52.150;5.236;2023-02-15T10:59:49;47.3;;;36.31;;
48891;SDS011;50130;52.150;5.236;2023-02-15T11:01:41;48.4;;;36.71;;
48891;SDS011;50130;52.150;5.236;2023-02-15T11:03:29;49.9;;;37.81;;
48891;SDS011;50130;52.150;5.236;2023-02-15T11:05:24;49.5;;;36.5;;
48891;SDS011;50130;52.150;5.236;2023-02-15T11:07:12;48.1;;;36.6;;
48891;SDS011;50130;52.150;5.236;2023-02-15T11:10:37;47.8;;;36.4;;
48891;SDS011;50130;52.150;5.236;2023-02-15T11:12:19;49.3;;;36.5;;
48891;SDS011;50130;52.150;5.236;2023-02-15T11:14:02;48.2;;;36.9;;
48891;SDS011;50130;52.150;5.236;2023-02-15T11:15:51;47.6;;;36.71;;
48891;SDS011;50130;52.150;5.236;2023-02-15T11:19:15;49.2;;;37.31;;
48891;SDS011;50130;52.150;5.236;2023-02-15T11:20:59;48.7;;;37.0;;
48891;SDS011;50130;52.150;5.236;2023-02-15T11:22:39;48.9;;;38.6;;
48891;SDS011;50130;52.150;5.236;2023-02-15T11:24:18;52.9;;;37.71;;
48891;SDS011;50130;52.150;5.236;2023-02-15T11:25:58;52.6;;;39.5;;
48891;SDS011;50130;52.150;5.236;2023-02-15T11:29:17;52.5;;;40.0;;
48891;SDS011;50130;52.150;5.236;2023-02-15T11:31:02;51.0;;;37.21;;
48891;SDS011;50130;52.150;5.236;2023-02-15T11:32:50;51.5;;;39.71;;
48891;SDS011;50130;52.150;5.236;2023-02-15T11:34:30;51.3;;;39.5;;
48891;SDS011;50130;52.150;5.236;2023-02-15T11:37:53;51.1;;;38.81;;
48891;SDS011;50130;52.150;5.236;2023-02-15T11:39:35;54.3;;;40.1;;
48891;SDS011;50130;52.150;5.236;2023-02-15T11:41:13;55.0;;;39.9;;
48891;SDS011;50130;52.150;5.236;2023-02-15T11:46:19;53.7;;;40.21;;
48891;SDS011;50130;52.150;5.236;2023-02-15T11:47:56;52.6;;;40.31;;
48891;SDS011;50130;52.150;5.236;2023-02-15T11:49:34;53.6;;;40.4;;
48891;SDS011;50130;52.150;5.236;2023-02-15T11:51:13;50.8;;;38.71;;
48891;SDS011;50130;52.150;5.236;2023-02-15T11:54:36;53.4;;;40.9;;
48891;SDS011;50130;52.150;5.236;2023-02-15T11:56:18;51.9;;;40.5;;
48891;SDS011;50130;52.150;5.236;2023-02-15T11:57:59;49.6;;;38.81;;
48891;SDS011;50130;52.150;5.236;2023-02-15T11:59:40;52.2;;;40.9;;
48891;SDS011;50130;52.150;5.236;2023-02-15T12:03:09;50.3;;;40.4;;
48891;SDS011;50130;52.150;5.236;2023-02-15T12:04:52;54.2;;;39.81;;
48891;SDS011;50130;52.150;5.236;2023-02-15T12:06:32;51.5;;;38.71;;
48891;SDS011;50130;52.150;5.236;2023-02-15T12:08:15;49.6;;;37.81;;
48891;SDS011;50130;52.150;5.236;2023-02-15T12:09:59;52.3;;;39.81;;
48891;SDS011;50130;52.150;5.236;2023-02-15T12:13:17;53.3;;;39.31;;
48891;SDS011;50130;52.150;5.236;2023-02-15T12:14:56;50.6;;;37.31;;
48891;SDS011;50130;52.150;5.236;2023-02-15T12:16:39;50.4;;;38.5;;
48891;SDS011;50130;52.150;5.236;2023-02-15T12:18:20;49.9;;;40.31;;
48891;SDS011;50130;52.150;5.236;2023-02-15T12:22:03;49.0;;;38.0;;
48891;SDS011;50130;52.150;5.236;2023-02-15T12:23:43;47.8;;;38.9;;
48891;SDS011;50130;52.150;5.236;2023-02-15T12:25:26;49.9;;;39.71;;
48891;SDS011;50130;52.150;5.236;2023-02-15T12:27:13;49.9;;;37.71;;
48891;SDS011;50130;52.150;5.236;2023-02-15T12:28:54;47.0;;;36.71;;
48891;SDS011;50130;52.150;5.236;2023-02-15T12:32:16;51.3;;;38.71;;
48891;SDS011;50130;52.150;5.236;2023-02-15T12:33:54;52.0;;;38.31;;
48891;SDS011;50130;52.150;5.236;2023-02-15T12:35:34;54.5;;;40.0;;
48891;SDS011;50130;52.150;5.236;2023-02-15T12:37:14;53.3;;;39.31;;
48891;SDS011;50130;52.150;5.236;2023-02-15T12:41:03;52.3;;;39.1;;
48891;SDS011;50130;52.150;5.236;2023-02-15T12:42:57;51.0;;;38.4;;
48891;SDS011;50130;52.150;5.236;2023-02-15T12:44:36;51.4;;;40.31;;
48891;SDS011;50130;52.150;5.236;2023-02-15T12:46:13;49.9;;;37.9;;
48891;SDS011;50130;52.150;5.236;2023-02-15T12:48:14;49.6;;;40.21;;
48891;SDS011;50130;52.150;5.236;2023-02-15T12:50:11;49.6;;;40.21;;
48891;SDS011;50130;52.150;5.236;2023-02-15T12:51:51;48.2;;;38.9;;
48891;SDS011;50130;52.150;5.236;2023-02-15T12:55:10;48.7;;;38.0;;
48891;SDS011;50130;52.150;5.236;2023-02-15T12:56:54;49.6;;;38.0;;
48891;SDS011;50130;52.150;5.236;2023-02-15T12:58:31;51.5;;;39.0;;
48891;SDS011;50130;52.150;5.236;2023-02-15T13:00:25;51.8;;;39.81;;
48891;SDS011;50130;52.150;5.236;2023-02-15T13:03:55;48.4;;;39.21;;
48891;SDS011;50130;52.150;5.236;2023-02-15T13:05:35;49.6;;;38.31;;